Terminal Aerodrome Forecast
Issued by NWS Flagstaff, AZ

Home | Current Version | Previous Version | Text Only | Print | Product List | Glossary On
Versions: 1 2 3 4 5 6 7 8 9 10 11 12
106
FTUS45 KFGZ 210525
TAFFLG
TAF
KFLG 210525Z 2106/2206 25009KT P6SM SKC
     FM211500 21015G25KT P6SM FEW150
     FM211800 22025G35KT P6SM SCT130=

USA.gov is the U.S. government's official web portal to all federal, state and local government web resources and services.